KEYO2: Keystone Lake

Data processed at Sat Jun 16 2018 16:27


All information presented herein is the property of the government of the United States of America and may be revised or deleted at any time without prior notice.
Dissemination of this information without the expressed written consent of the Public Affairs Office, Tulsa District U.S. Army Corps of Engineers is strictly prohibited.
These data are gathered electronically and, as presented, have not undergone any form of quality control. These data are not guaranteed to be valid or correct.
Go to home page.
Go to station list.

Upstream stations:

Downstream station:
Previous Day
Next Day
Current Day
    
SHEF ID:       KEYO2     Keystone Lake
STATION TYPE:  Reservoir
Normal Pool:  Bottom =   706.00, Top =   723.00

               PRECIP ELEVATION   STORAGE   TW-ELEV    INFLOW   RELEASE  AIR-TEMP  WIND-DIRWIND-SPEED REL-HUMID SOLAR-RAD   VOLTAGE  BAT-LOAD
                   in        ft     ac-ft        ft       cfs       cfs         F       deg       mph         %      W/m2      volt      volt
              Ccp-Rev   Ccp-Rev   Ccp-Rev   Ccp-Rev  Regi-Rev  Regi-Rev   Ccp-Rev   Ccp-Rev   Ccp-Rev   Ccp-Rev   Ccp-Rev   Ccp-Rev   Ccp-Rev
(US/Central)
06/14 00:00      0.00    725.81    485875    638.47      7249        60     83.32    129.90      2.00     66.25      0.00     13.71     13.30
06/14 01:00      0.00    725.83    486325    638.12      5505        60     82.44    134.40      3.27     66.49      0.00     13.71     13.30
06/14 02:00      0.00    725.85    486775    638.00      6594        60     80.35    135.70      4.74     71.44      0.00     13.71     13.30
06/14 03:00      0.00    725.87    487225    637.97      4961        60     79.47    133.30      6.16     71.74      0.00     13.71     13.30
06/14 04:00      0.00    725.90    487900    637.95      3872        60     79.14    131.60      5.87     71.38      0.00     13.71     13.30
06/14 05:00      0.00    725.93    488575    637.95      5615        60     78.69    131.50      5.60     71.25      0.00     13.72     13.30
06/14 06:00      0.00    725.90    487900    639.05      4636        60     77.70    129.40      5.08     73.27      0.00     13.71     13.30
06/14 07:00      0.00    725.91    488125    642.38      4202     11500     78.48    130.20      5.21     70.64     22.00     13.71     13.30
06/14 08:00      0.00    725.87    487225    642.53      4312     11500     78.91    113.30      4.07     71.25    168.00     13.71     13.30
06/14 09:00      0.00    725.85    486775    642.60      6055     11500     82.22    142.40      4.64     63.99    399.00     13.71     13.30
06/14 10:00      0.00    725.81    485875    642.64      3877     11500     84.18    168.00      5.38     61.85    609.00     13.71     13.30
06/14 11:00      0.00    725.80    485650    642.63      4966     11500     86.94    186.10      5.45     57.64    772.00     13.71     12.60
06/14 12:00      0.00    725.77    484975    642.61      4422     11500     88.81    190.60      5.40     53.30    913.00     13.71     13.30
06/14 13:00      0.00    725.75    484525    642.61      5511     11500     90.01    166.20      5.74     50.37    967.00     13.71     13.30
06/14 14:00      0.00    725.72    483850    642.64      5511     11500     91.33    149.30      7.46     47.81    965.00     13.71     12.48
06/14 15:00      0.00    725.70    483400    642.65      4966     11500     91.67    160.70      8.35     47.75    937.00     13.71     13.30
06/14 16:00      0.00    725.69    483175    642.63      4966     11500     92.10    167.90      7.91     47.81    834.00     13.71     13.24
06/14 17:00      0.00    725.65    482275    642.63      5511     11500     92.10    164.00      7.83     46.34    484.00     13.71     13.30
06/14 18:00      0.00    725.63    481825    642.62      5511     11500     91.54    149.20      6.05     47.31    510.00     13.71     13.30
06/14 19:00      0.00    725.61    481375    642.58      6055     11500     90.25    141.40      6.11     51.72    335.00     13.71     13.30
06/14 20:00      0.00    725.59    480925    642.64      8233     11500     87.71    131.40      4.95     60.32    118.00     13.71     13.30
06/14 21:00      0.00    725.59    480925    642.03      7579     11500     84.18    121.30      3.78     69.91     19.00     13.71     13.30
06/14 22:00      0.00    725.59    480925    639.40      8558     11500     81.77    102.90      1.81     74.00      0.00     13.71     13.30
06/14 23:00      0.00    725.60    481150    638.46      8448        60     81.77    122.70      5.11     65.45      0.00     13.71     13.30